createdAt,value
2022-12-18T00:01:25.234Z,102267.88
2022-12-18T00:03:52.688Z,102266.69
2022-12-18T00:06:19.554Z,102266.28
2022-12-18T00:08:46.962Z,102264.66
2022-12-18T00:11:15.562Z,102261.09
2022-12-18T00:13:43.726Z,102277.38
2022-12-18T00:16:13.252Z,102273.78
2022-12-18T00:18:40.393Z,102286.03
2022-12-18T00:21:09.909Z,102295.84
2022-12-18T00:23:37.999Z,102298.75
2022-12-18T00:26:07.454Z,102288.78
2022-12-18T00:28:34.261Z,102287.09
2022-12-18T00:31:03.173Z,102285.66
2022-12-18T00:33:30.241Z,102287.63
2022-12-18T00:36:01.727Z,102288.88
2022-12-18T00:38:28.283Z,102279.56
2022-12-18T00:40:54.703Z,102274.25
2022-12-18T00:43:21.154Z,102285.34
2022-12-18T00:45:47.625Z,102276.34
2022-12-18T00:48:15.485Z,102290.41
2022-12-18T00:50:42.164Z,102300.78
2022-12-18T00:53:12.251Z,102304.13
2022-12-18T00:55:38.782Z,102307.72
2022-12-18T00:58:05.215Z,102311.09
2022-12-18T01:00:31.621Z,102301.44
2022-12-18T01:02:58.178Z,102296.84
2022-12-18T01:05:26.794Z,102298.84
2022-12-18T01:07:53.293Z,102301.84
2022-12-18T01:10:20.013Z,102298.84
2022-12-18T01:12:46.520Z,102287.56
2022-12-18T01:15:14.447Z,102286.31
2022-12-18T01:17:40.974Z,102288.19
2022-12-18T01:20:08.626Z,102291.28
2022-12-18T01:22:36.434Z,102287.59
2022-12-18T01:25:04.518Z,102296.88
2022-12-18T01:27:31.442Z,102290.31
2022-12-18T01:29:57.871Z,102286.75
2022-12-18T01:32:24.279Z,102299.16
2022-12-18T01:34:50.732Z,102298.13
2022-12-18T01:37:17.259Z,102304.22
2022-12-18T01:39:45.046Z,102296.78
2022-12-18T01:42:13.958Z,102309.63
2022-12-18T01:44:59.072Z,102310.16
2022-12-18T01:47:29.334Z,102306.28
2022-12-18T01:49:57.835Z,102307.41
2022-12-18T01:52:25.691Z,102309.13
2022-12-18T01:54:54.577Z,102315.75
2022-12-18T01:57:21.136Z,102307.78
2022-12-18T01:59:52.636Z,102310.53
2022-12-18T02:02:19.668Z,102313.66
2022-12-18T02:04:49.566Z,102314.97
2022-12-18T02:07:24.587Z,102326.09
2022-12-18T02:09:59.876Z,102328.56
2022-12-18T02:12:32.926Z,102335.09
2022-12-18T02:15:03.652Z,102321.94
2022-12-18T02:17:38.088Z,102326.31
2022-12-18T02:20:13.044Z,102324.22
2022-12-18T02:22:49.179Z,102318.03
2022-12-18T02:25:30.920Z,102327.19
2022-12-18T02:28:01.442Z,102328.97
2022-12-18T02:30:32.301Z,102326.88
2022-12-18T02:33:01.905Z,102324.63
2022-12-18T02:35:31.083Z,102320.00
2022-12-18T02:37:58.979Z,102319.44
2022-12-18T02:40:28.163Z,102304.00
2022-12-18T02:42:54.695Z,102316.09
2022-12-18T02:45:22.499Z,102309.28
2022-12-18T02:47:50.672Z,102313.19
2022-12-18T02:50:23.436Z,102311.66
2022-12-18T02:53:00.445Z,102304.72
2022-12-18T02:55:35.954Z,102294.53
2022-12-18T02:58:06.600Z,102303.59
2022-12-18T03:00:40.161Z,102301.88
2022-12-18T03:03:12.425Z,102308.88
2022-12-18T03:05:44.484Z,102307.75
2022-12-18T03:08:15.613Z,102299.63
2022-12-18T03:10:50.362Z,102296.94
2022-12-18T03:13:22.484Z,102297.72
2022-12-18T03:15:54.005Z,102301.00
2022-12-18T03:18:25.754Z,102301.72
2022-12-18T03:20:54.825Z,102303.13
2022-12-18T03:23:26.323Z,102294.78
2022-12-18T03:25:56.778Z,102283.94
2022-12-18T03:28:24.337Z,102285.66
2022-12-18T03:30:56.723Z,102291.22
2022-12-18T03:33:28.390Z,102292.34
2022-12-18T03:35:54.862Z,102281.28
2022-12-18T03:38:21.423Z,102304.00
2022-12-18T03:40:57.765Z,102307.91
2022-12-18T03:43:36.307Z,102311.81
2022-12-18T03:46:08.906Z,102312.44
2022-12-18T03:48:42.707Z,102308.97
2022-12-18T03:51:11.200Z,102302.19
2022-12-18T03:53:45.002Z,102304.84
2022-12-18T03:56:14.277Z,102309.81
2022-12-18T03:58:42.546Z,102314.00
2022-12-18T04:01:14.570Z,102324.22
2022-12-18T04:03:43.429Z,102316.28
2022-12-18T04:06:10.894Z,102315.94
2022-12-18T04:08:37.901Z,102320.25
2022-12-18T04:11:04.593Z,102323.28
2022-12-18T04:13:36.408Z,102318.91
2022-12-18T04:16:03.562Z,102320.03
2022-12-18T04:18:31.741Z,102324.97
2022-12-18T04:20:58.146Z,102326.41
2022-12-18T04:23:24.595Z,102316.63
2022-12-18T04:25:50.996Z,102321.53
2022-12-18T04:28:17.961Z,102319.72
2022-12-18T04:30:44.455Z,102315.69
2022-12-18T04:33:11.391Z,102315.34
2022-12-18T04:35:39.495Z,102313.06
2022-12-18T04:38:06.911Z,102320.75
2022-12-18T04:40:33.400Z,102310.09
2022-12-18T04:42:59.897Z,102315.06
2022-12-18T04:45:26.706Z,102306.25
2022-12-18T04:47:53.129Z,102296.50
2022-12-18T04:50:19.541Z,102296.50
2022-12-18T04:52:47.293Z,102298.03
2022-12-18T04:55:13.689Z,102306.34
2022-12-18T04:57:40.079Z,102303.94
2022-12-18T05:00:08.077Z,102298.69
2022-12-18T05:02:34.612Z,102300.81
2022-12-18T05:05:01.166Z,102300.78
2022-12-18T05:07:27.807Z,102302.28
2022-12-18T05:09:55.550Z,102304.06
2022-12-18T05:12:21.963Z,102301.47
2022-12-18T05:14:48.562Z,102307.94
2022-12-18T05:17:14.985Z,102320.78
2022-12-18T05:19:41.387Z,102327.28
2022-12-18T05:22:07.946Z,102324.66
2022-12-18T05:24:34.477Z,102321.09
2022-12-18T05:27:02.398Z,102319.59
2022-12-18T05:29:28.815Z,102316.13
2022-12-18T05:31:55.239Z,102313.84
2022-12-18T05:34:21.782Z,102316.56
2022-12-18T05:36:48.206Z,102325.63
2022-12-18T05:39:14.601Z,102325.53
2022-12-18T05:41:41.013Z,102330.91
2022-12-18T05:44:09.381Z,102333.59
2022-12-18T05:46:35.882Z,102324.81
2022-12-18T05:49:02.703Z,102336.34
2022-12-18T05:51:29.165Z,102340.94
2022-12-18T05:53:55.824Z,102343.81
2022-12-18T05:56:23.635Z,102352.56
2022-12-18T05:58:52.481Z,102360.47
2022-12-18T06:01:23.283Z,102359.19
2022-12-18T06:03:49.769Z,102353.00
2022-12-18T06:06:18.436Z,102343.50
2022-12-18T06:08:46.630Z,102333.25
2022-12-18T06:11:13.449Z,102338.44
2022-12-18T06:13:40.293Z,102345.00
2022-12-18T06:16:07.625Z,102343.56
2022-12-18T06:18:35.592Z,102348.84
2022-12-18T06:21:02.206Z,102351.09
2022-12-18T06:23:28.910Z,102350.47
2022-12-18T06:25:55.630Z,102348.53
2022-12-18T06:28:22.329Z,102345.22
2022-12-18T06:30:49.244Z,102348.53
2022-12-18T06:33:16.401Z,102341.53
2022-12-18T06:35:44.178Z,102345.53
2022-12-18T06:38:10.587Z,102340.69
2022-12-18T06:40:38.628Z,102342.25
2022-12-18T06:43:05.217Z,102342.94
2022-12-18T06:45:31.827Z,102351.59
2022-12-18T06:47:58.261Z,102355.34
2022-12-18T06:50:25.612Z,102358.44
2022-12-18T06:52:53.375Z,102356.13
2022-12-18T06:55:19.801Z,102357.22
2022-12-18T06:57:46.241Z,102361.75
2022-12-18T07:00:13.434Z,102358.81
2022-12-18T07:02:39.915Z,102358.41
2022-12-18T07:05:10.730Z,102357.69
2022-12-18T07:07:37.608Z,102361.88
2022-12-18T07:10:06.172Z,102370.97
2022-12-18T07:12:32.590Z,102375.47
2022-12-18T07:14:58.995Z,102372.91
2022-12-18T07:17:25.427Z,102368.25
2022-12-18T07:19:52.115Z,102378.25
2022-12-18T07:22:18.908Z,102385.38
2022-12-18T07:24:45.362Z,102395.78
2022-12-18T07:27:13.289Z,102394.34
2022-12-18T07:29:40.288Z,102398.38
2022-12-18T07:32:06.857Z,102398.00
2022-12-18T07:34:33.470Z,102399.25
2022-12-18T07:36:59.891Z,102399.56
2022-12-18T07:39:26.313Z,102398.38
2022-12-18T07:41:52.772Z,102400.59
2022-12-18T07:44:20.577Z,102410.91
2022-12-18T07:46:47.022Z,102414.22
2022-12-18T07:49:13.426Z,102420.94
2022-12-18T07:51:39.804Z,102413.91
2022-12-18T07:54:06.181Z,102412.41
2022-12-18T07:56:32.755Z,102410.94
2022-12-18T07:58:59.827Z,102405.28
2022-12-18T08:01:27.927Z,102393.91
2022-12-18T08:03:54.503Z,102385.78
2022-12-18T08:06:22.517Z,102391.56
2022-12-18T08:08:51.904Z,102385.78
2022-12-18T08:11:18.326Z,102390.63
2022-12-18T08:13:46.306Z,102386.66
2022-12-18T08:16:12.792Z,102382.97
2022-12-18T08:18:40.567Z,102381.31
2022-12-18T08:21:10.504Z,102381.19
2022-12-18T08:23:42.330Z,102381.34
2022-12-18T08:26:09.697Z,102379.66
2022-12-18T08:28:36.124Z,102382.91
2022-12-18T08:31:02.638Z,102379.25
2022-12-18T08:33:29.494Z,102382.53
2022-12-18T08:35:59.074Z,102380.19
2022-12-18T08:38:25.558Z,102371.53
2022-12-18T08:40:59.717Z,102358.09
2022-12-18T08:43:26.144Z,102358.84
2022-12-18T08:45:52.621Z,102362.94
2022-12-18T08:48:22.170Z,102356.50
2022-12-18T08:50:55.155Z,102367.41
2022-12-18T08:53:22.915Z,102363.84
2022-12-18T08:55:50.462Z,102367.88
2022-12-18T08:58:17.141Z,102363.09
2022-12-18T09:00:43.544Z,102359.88
2022-12-18T09:03:12.648Z,102361.22
2022-12-18T09:05:39.142Z,102362.78
2022-12-18T09:08:05.634Z,102355.19
2022-12-18T09:10:34.269Z,102348.06
2022-12-18T09:13:02.927Z,102356.81
2022-12-18T09:15:29.322Z,102353.59
2022-12-18T09:17:55.742Z,102347.41
2022-12-18T09:20:22.159Z,102341.47
2022-12-18T09:22:48.585Z,102342.34
2022-12-18T09:25:15.027Z,102342.22
2022-12-18T09:27:42.764Z,102336.88
2022-12-18T09:30:10.471Z,102343.66
2022-12-18T09:32:36.892Z,102345.38
2022-12-18T09:35:03.906Z,102345.38
2022-12-18T09:37:30.443Z,102344.88
2022-12-18T09:39:56.838Z,102346.75
2022-12-18T09:42:23.647Z,102352.53
2022-12-18T09:44:54.175Z,102354.72
2022-12-18T09:47:24.661Z,102349.06
2022-12-18T09:49:55.550Z,102343.63
2022-12-18T09:52:27.184Z,102354.19
2022-12-18T09:54:59.373Z,102362.50
2022-12-18T09:57:25.936Z,102360.59
2022-12-18T09:59:57.205Z,102364.31
2022-12-18T10:02:25.845Z,102363.91
2022-12-18T10:05:02.950Z,102355.66
2022-12-18T10:07:38.248Z,102355.13
2022-12-18T10:10:13.378Z,102363.94
2022-12-18T10:12:51.676Z,102360.03
2022-12-18T10:15:25.332Z,102365.53
2022-12-18T10:17:59.928Z,102370.97
2022-12-18T10:20:32.871Z,102365.97
2022-12-18T10:23:04.595Z,102367.00
2022-12-18T10:25:40.059Z,102357.38
2022-12-18T10:28:12.984Z,102359.78
2022-12-18T10:30:42.250Z,102359.16
2022-12-18T10:33:12.191Z,102355.28
2022-12-18T10:35:42.359Z,102360.66
2022-12-18T10:38:23.091Z,102351.88
2022-12-18T10:40:52.651Z,102352.41
2022-12-18T10:43:22.726Z,102349.56
2022-12-18T10:46:03.041Z,102348.25
2022-12-18T10:48:31.586Z,102347.72
2022-12-18T10:51:14.123Z,102356.72
2022-12-18T10:53:42.594Z,102352.44
2022-12-18T10:56:09.549Z,102341.84
2022-12-18T10:58:37.922Z,102332.34
2022-12-18T11:01:09.593Z,102327.94
2022-12-18T11:03:38.203Z,102320.44
2022-12-18T11:06:08.143Z,102306.81
2022-12-18T11:08:34.851Z,102305.75
2022-12-18T11:11:01.564Z,102296.28
2022-12-18T11:13:30.779Z,102296.50
2022-12-18T11:15:57.978Z,102307.59
2022-12-18T11:18:29.521Z,102311.06
2022-12-18T11:20:58.865Z,102309.25
2022-12-18T11:23:26.942Z,102316.16
2022-12-18T11:26:01.739Z,102316.50
2022-12-18T11:28:37.794Z,102319.97
2022-12-18T11:31:25.635Z,102311.72
2022-12-18T11:36:48.959Z,102305.75
2022-12-18T11:39:21.434Z,102306.53
2022-12-18T11:41:55.788Z,102306.81
2022-12-18T11:44:28.667Z,102295.13
2022-12-18T11:47:01.159Z,102288.69
2022-12-18T11:49:34.188Z,102279.41
2022-12-18T11:52:05.593Z,102264.41
2022-12-18T11:54:32.033Z,102256.25
2022-12-18T11:57:10.878Z,102244.41
2022-12-18T11:59:49.723Z,102243.44
2022-12-18T12:02:30.841Z,102242.00
2022-12-18T12:05:15.259Z,102234.63
2022-12-18T12:07:49.027Z,102228.78
2022-12-18T12:10:25.009Z,102225.16
2022-12-18T12:13:08.643Z,102226.34
2022-12-18T12:15:42.919Z,102215.38
2022-12-18T12:18:25.465Z,102203.88
2022-12-18T12:21:03.552Z,102206.94
2022-12-18T12:23:42.430Z,102202.56
2022-12-18T12:26:12.606Z,102206.84
2022-12-18T12:29:22.806Z,102207.94
2022-12-18T12:32:01.868Z,102213.34
2022-12-18T12:34:35.439Z,102208.00
2022-12-18T12:37:19.795Z,102207.03
2022-12-18T12:39:47.914Z,102197.28
2022-12-18T12:42:21.009Z,102204.91
2022-12-18T12:44:56.326Z,102194.56
2022-12-18T12:47:29.201Z,102194.63
2022-12-18T12:49:58.984Z,102191.75
2022-12-18T12:52:33.216Z,102190.06
2022-12-18T12:55:01.878Z,102180.03
2022-12-18T12:57:35.218Z,102181.53
2022-12-18T13:00:06.024Z,102178.44
2022-12-18T13:02:40.302Z,102176.44
2022-12-18T13:05:17.214Z,102179.06
2022-12-18T13:07:51.055Z,102171.91
2022-12-18T13:10:35.408Z,102176.72
2022-12-18T13:13:04.931Z,102170.25
2022-12-18T13:18:25.382Z,102169.16
2022-12-18T13:21:04.666Z,102167.94
2022-12-18T13:23:36.881Z,102179.31
2022-12-18T13:26:33.688Z,102191.88
2022-12-18T13:29:00.882Z,102184.00
2022-12-18T13:31:59.928Z,102192.66
2022-12-18T13:34:29.342Z,102192.06
2022-12-18T13:36:58.352Z,102186.72
2022-12-18T13:39:35.181Z,102180.72
2022-12-18T13:42:38.682Z,102191.25
2022-12-18T13:45:47.567Z,102179.91
2022-12-18T13:48:19.687Z,102168.00
2022-12-18T13:50:55.703Z,102165.84
2022-12-18T13:53:25.735Z,102167.09
2022-12-18T13:55:52.549Z,102160.53
2022-12-18T13:58:19.088Z,102165.03
2022-12-18T14:00:47.051Z,102157.97
2022-12-18T14:03:22.843Z,102151.28
2022-12-18T14:05:56.683Z,102143.09
2022-12-18T14:08:25.881Z,102132.69
2022-12-18T14:10:52.332Z,102130.63
2022-12-18T14:13:25.142Z,102131.41
2022-12-18T14:15:53.140Z,102126.19
2022-12-18T14:18:25.192Z,102117.66
2022-12-18T14:20:53.544Z,102117.69
2022-12-18T14:23:29.052Z,102118.84
2022-12-18T14:25:55.684Z,102113.00
2022-12-18T14:28:23.920Z,102103.94
2022-12-18T14:30:51.127Z,102105.56
2022-12-18T14:33:20.727Z,102103.91
2022-12-18T14:35:55.208Z,102104.00
2022-12-18T14:38:25.233Z,102104.53
2022-12-18T14:40:54.023Z,102100.50
2022-12-18T14:43:20.911Z,102107.25
2022-12-18T14:45:48.434Z,102091.25
2022-12-18T14:48:19.009Z,102086.75
2022-12-18T14:50:59.533Z,102084.78
2022-12-18T14:53:34.661Z,102093.00
2022-12-18T14:56:01.748Z,102085.38
2022-12-18T14:58:28.366Z,102084.28
2022-12-18T15:00:55.641Z,102092.41
2022-12-18T15:03:22.886Z,102081.53
2022-12-18T15:05:49.674Z,102090.78
2022-12-18T15:08:32.065Z,102078.59
2022-12-18T15:10:59.379Z,102070.16
2022-12-18T15:13:26.154Z,102072.81
2022-12-18T15:15:53.637Z,102064.75
2022-12-18T15:18:22.132Z,102071.13
2022-12-18T15:20:50.469Z,102056.75
2022-12-18T15:23:20.345Z,102063.41
2022-12-18T15:25:55.896Z,102064.00
2022-12-18T15:28:25.454Z,102054.41
2022-12-18T15:31:03.878Z,102051.56
2022-12-18T15:33:33.909Z,102046.34
2022-12-18T15:36:02.504Z,102049.16
2022-12-18T15:38:28.938Z,102055.25
2022-12-18T15:40:57.377Z,102053.03
2022-12-18T15:43:25.299Z,102035.22
2022-12-18T15:45:51.691Z,102048.59
2022-12-18T15:48:22.221Z,102041.06
2022-12-18T15:50:49.187Z,102034.41
2022-12-18T15:53:15.791Z,102021.69
2022-12-18T15:55:42.324Z,102025.13
2022-12-18T15:58:11.354Z,102028.34
2022-12-18T16:00:40.867Z,102020.91
2022-12-18T16:03:07.682Z,102018.31
2022-12-18T16:05:34.229Z,102016.84
2022-12-18T16:08:00.699Z,102019.66
2022-12-18T16:10:27.265Z,102013.34
2022-12-18T16:12:53.736Z,102008.72
2022-12-18T16:15:24.799Z,102011.59
2022-12-18T16:17:52.112Z,102013.03
2022-12-18T16:20:20.896Z,102005.19
2022-12-18T16:22:47.893Z,101998.94
2022-12-18T16:25:21.017Z,101996.13
2022-12-18T16:27:47.578Z,101988.97
2022-12-18T16:30:16.167Z,101984.50
2022-12-18T16:32:44.306Z,101985.13
2022-12-18T16:35:12.092Z,101984.25
2022-12-18T16:37:38.647Z,101973.94
2022-12-18T16:40:07.319Z,101978.53
2022-12-18T16:42:33.730Z,101972.34
2022-12-18T16:45:00.127Z,101977.09
2022-12-18T16:47:26.576Z,101978.63
2022-12-18T16:49:54.320Z,101971.00
2022-12-18T16:52:22.313Z,101959.84
2022-12-18T16:54:49.074Z,101955.56
2022-12-18T16:57:17.570Z,101956.41
2022-12-18T16:59:44.051Z,101952.75
2022-12-18T17:02:13.898Z,101941.69
2022-12-18T17:04:40.394Z,101939.72
2022-12-18T17:07:08.174Z,101924.88
2022-12-18T17:09:34.819Z,101924.53
2022-12-18T17:12:04.211Z,101927.22
2022-12-18T17:14:32.718Z,101926.94
2022-12-18T17:17:20.477Z,101926.28
2022-12-18T17:19:45.742Z,101920.28
2022-12-18T17:22:13.493Z,101920.97
2022-12-18T17:24:39.901Z,101920.34
2022-12-18T17:27:06.361Z,101928.56
2022-12-18T17:29:32.927Z,101924.69
2022-12-18T17:32:00.416Z,101925.22
2022-12-18T17:34:29.751Z,101925.72
2022-12-18T17:36:56.602Z,101920.13
2022-12-18T17:39:24.336Z,101922.56
2022-12-18T17:41:50.755Z,101926.66
2022-12-18T17:44:17.877Z,101927.78
2022-12-18T17:46:44.498Z,101922.53
2022-12-18T17:49:11.474Z,101925.91
2022-12-18T17:51:37.939Z,101923.13
2022-12-18T17:54:04.779Z,101919.59
2022-12-18T17:56:32.551Z,101920.41
2022-12-18T17:58:59.682Z,101919.31
2022-12-18T18:01:27.023Z,101907.81
2022-12-18T18:03:54.481Z,101918.78
2022-12-18T18:06:21.401Z,101924.19
2022-12-18T18:08:48.061Z,101932.72
2022-12-18T18:11:17.599Z,101921.66
2022-12-18T18:13:47.193Z,101906.03
2022-12-18T18:16:13.900Z,101891.84
2022-12-18T18:18:40.428Z,101900.25
2022-12-18T18:21:08.679Z,101869.50
2022-12-18T18:23:35.991Z,101860.38
2022-12-18T18:26:03.653Z,101873.97
2022-12-18T18:28:31.041Z,101865.59
2022-12-18T18:31:03.636Z,101857.91
2022-12-18T18:33:30.256Z,101852.00
2022-12-18T18:35:56.679Z,101847.03
2022-12-18T18:38:23.124Z,101841.38
2022-12-18T18:40:58.179Z,101843.53
2022-12-18T18:43:24.642Z,101849.69
2022-12-18T18:45:55.095Z,101841.56
2022-12-18T18:48:22.944Z,101831.97
2022-12-18T18:50:56.135Z,101822.22
2022-12-18T18:53:22.559Z,101831.41
2022-12-18T18:56:03.961Z,101811.56
2022-12-18T18:58:35.505Z,101817.53
2022-12-18T19:01:04.896Z,101810.25
2022-12-18T19:03:33.696Z,101815.88
2022-12-18T19:06:01.372Z,101814.75
2022-12-18T19:08:30.161Z,101816.56
2022-12-18T19:10:59.064Z,101815.75
2022-12-18T19:13:27.984Z,101814.47
2022-12-18T19:15:56.036Z,101819.03
2022-12-18T19:18:23.289Z,101811.22
2022-12-18T19:20:59.024Z,101802.81
2022-12-18T19:23:25.625Z,101810.47
2022-12-18T19:25:59.484Z,101808.53
2022-12-18T19:28:38.893Z,101802.56
2022-12-18T19:31:07.846Z,101789.47
2022-12-18T19:33:44.137Z,101791.22
2022-12-18T19:36:15.048Z,101771.13
2022-12-18T19:38:44.135Z,101781.09
2022-12-18T19:41:12.453Z,101774.31
2022-12-18T19:43:40.642Z,101773.81
2022-12-18T19:46:08.232Z,101767.38
2022-12-18T19:48:35.170Z,101765.25
2022-12-18T19:51:04.888Z,101789.19
2022-12-18T19:53:32.690Z,101782.81
2022-12-18T19:55:59.289Z,101779.50
2022-12-18T19:58:25.753Z,101785.84
2022-12-18T20:00:52.188Z,101779.84
2022-12-18T20:03:27.351Z,101777.41
2022-12-18T20:06:08.110Z,101775.53
2022-12-18T20:08:35.890Z,101776.81
2022-12-18T20:11:02.330Z,101777.97
2022-12-18T20:13:28.778Z,101762.50
2022-12-18T20:15:55.207Z,101750.88
2022-12-18T20:18:21.637Z,101752.88
2022-12-18T20:20:49.326Z,101741.81
2022-12-18T20:23:17.278Z,101723.28
2022-12-18T20:25:45.223Z,101702.22
2022-12-18T20:28:11.673Z,101686.88
2022-12-18T20:30:38.155Z,101689.03
2022-12-18T20:33:04.989Z,101690.56
2022-12-18T20:35:32.145Z,101704.09
2022-12-18T20:37:59.213Z,101729.41
2022-12-18T20:40:27.441Z,101744.31
2022-12-18T20:42:55.221Z,101744.00
2022-12-18T20:45:21.859Z,101742.56
2022-12-18T20:47:48.238Z,101733.75
2022-12-18T20:50:14.724Z,101723.69
2022-12-18T20:52:41.163Z,101735.44
2022-12-18T20:55:08.177Z,101730.00
2022-12-18T20:57:35.160Z,101724.53
2022-12-18T21:00:05.921Z,101727.28
2022-12-18T21:02:33.371Z,101728.03
2022-12-18T21:04:59.982Z,101723.91
2022-12-18T21:07:26.361Z,101722.19
2022-12-18T21:09:53.023Z,101724.75
2022-12-18T21:12:20.009Z,101728.88
2022-12-18T21:14:46.480Z,101736.88
2022-12-18T21:17:16.147Z,101730.16
2022-12-18T21:19:42.616Z,101716.38
2022-12-18T21:22:09.954Z,101716.34
2022-12-18T21:24:36.466Z,101720.97
2022-12-18T21:27:03.115Z,101710.63
2022-12-18T21:29:29.509Z,101712.78
2022-12-18T21:31:55.984Z,101730.94
2022-12-18T21:34:25.712Z,101734.50
2022-12-18T21:36:52.250Z,101749.03
2022-12-18T21:39:19.917Z,101744.88
2022-12-18T21:41:49.353Z,101747.19
2022-12-18T21:44:18.834Z,101744.81
2022-12-18T21:46:51.517Z,101746.00
2022-12-18T21:49:20.494Z,101741.03
2022-12-18T21:51:49.782Z,101739.84
2022-12-18T21:54:16.472Z,101745.47
2022-12-18T21:56:45.044Z,101733.53
2022-12-18T21:59:13.024Z,101735.13
2022-12-18T22:01:39.585Z,101719.69
2022-12-18T22:04:06.214Z,101728.00
2022-12-18T22:06:32.639Z,101708.75
2022-12-18T22:09:00.414Z,101703.88
2022-12-18T22:11:26.861Z,101696.88
2022-12-18T22:13:53.311Z,101689.38
2022-12-18T22:16:19.805Z,101685.06
2022-12-18T22:18:46.413Z,101679.38
2022-12-18T22:21:28.527Z,101683.78
2022-12-18T22:23:56.752Z,101670.75
2022-12-18T22:26:25.982Z,101682.34
2022-12-18T22:28:52.511Z,101677.66
2022-12-18T22:31:18.981Z,101684.84
2022-12-18T22:33:45.423Z,101688.25
2022-12-18T22:36:12.890Z,101675.81
2022-12-18T22:38:39.340Z,101689.22
2022-12-18T22:41:05.944Z,101683.19
2022-12-18T22:43:33.712Z,101691.91
2022-12-18T22:46:03.050Z,101688.22
2022-12-18T22:48:29.536Z,101680.28
2022-12-18T22:50:56.751Z,101677.75
2022-12-18T22:53:26.180Z,101670.56
2022-12-18T22:56:00.263Z,101660.53
2022-12-18T22:58:26.695Z,101653.78
2022-12-18T23:00:54.479Z,101640.56
2022-12-18T23:03:20.884Z,101644.53
2022-12-18T23:05:47.329Z,101633.84
2022-12-18T23:08:13.718Z,101641.84
2022-12-18T23:10:40.132Z,101643.72
2022-12-18T23:13:06.618Z,101638.69
2022-12-18T23:15:33.052Z,101632.56
2022-12-18T23:18:00.791Z,101632.59
2022-12-18T23:20:28.149Z,101632.81
2022-12-18T23:22:54.678Z,101646.22
2022-12-18T23:25:21.090Z,101642.44
2022-12-18T23:27:47.539Z,101642.06
2022-12-18T23:30:14.034Z,101632.81
2022-12-18T23:32:40.460Z,101641.63
2022-12-18T23:35:08.686Z,101632.19
2022-12-18T23:37:58.373Z,101617.69
2022-12-18T23:40:23.283Z,101608.66
2022-12-18T23:42:49.686Z,101600.88
2022-12-18T23:45:17.938Z,101600.25
2022-12-18T23:47:44.886Z,101595.44
2022-12-18T23:50:15.031Z,101596.25
2022-12-18T23:52:41.676Z,101590.59
2022-12-18T23:55:08.640Z,101589.56
2022-12-18T23:57:35.052Z,101580.53
